createdAt,value
2022-10-13T00:00:16.163Z,8.50
2022-10-13T00:02:44.240Z,8.03
2022-10-13T00:05:12.328Z,7.57
2022-10-13T00:07:40.394Z,7.90
2022-10-13T00:10:10.817Z,8.00
2022-10-13T00:12:39.730Z,7.40
2022-10-13T00:15:09.732Z,7.57
2022-10-13T00:17:37.956Z,8.03
2022-10-13T00:20:07.093Z,8.20
2022-10-13T00:22:35.097Z,8.20
2022-10-13T00:25:03.586Z,8.53
2022-10-13T00:27:33.020Z,8.90
2022-10-13T00:30:01.068Z,7.00
2022-10-13T00:32:29.111Z,7.93
2022-10-13T00:34:57.763Z,8.13
2022-10-13T00:37:25.958Z,8.13
2022-10-13T00:39:54.147Z,8.10
2022-10-13T00:42:23.444Z,8.63
2022-10-13T00:45:06.052Z,8.40
2022-10-13T00:47:37.993Z,9.20
2022-10-13T00:50:08.737Z,8.23
2022-10-13T00:52:38.301Z,8.77
2022-10-13T00:55:09.198Z,9.17
2022-10-13T00:57:39.940Z,9.83
2022-10-13T01:00:12.247Z,9.07
2022-10-13T01:02:40.520Z,8.80
2022-10-13T01:05:09.780Z,8.30
2022-10-13T01:07:37.966Z,9.43
2022-10-13T01:10:06.864Z,9.60
2022-10-13T01:12:45.426Z,8.77
2022-10-13T01:15:21.824Z,9.00
2022-10-13T01:17:58.617Z,8.17
2022-10-13T01:20:53.739Z,8.90
2022-10-13T01:23:56.737Z,8.43
2022-10-13T01:26:44.471Z,9.00
2022-10-13T01:29:33.717Z,9.10
2022-10-13T01:32:09.296Z,8.83
2022-10-13T01:34:44.909Z,8.80
2022-10-13T01:37:20.308Z,9.13
2022-10-13T01:39:56.213Z,8.90
2022-10-13T01:42:28.774Z,8.10
2022-10-13T01:45:01.676Z,8.40
2022-10-13T01:47:35.189Z,9.00
2022-10-13T01:50:04.587Z,8.37
2022-10-13T01:52:36.355Z,8.67
2022-10-13T01:55:08.710Z,8.40
2022-10-13T01:57:39.584Z,8.67
2022-10-13T02:00:09.987Z,9.13
2022-10-13T02:02:48.382Z,8.07
2022-10-13T02:05:26.583Z,9.13
2022-10-13T02:08:00.286Z,8.20
2022-10-13T02:10:35.151Z,8.77
2022-10-13T02:13:06.238Z,8.50
2022-10-13T02:15:38.422Z,9.43
2022-10-13T02:18:09.927Z,7.90
2022-10-13T02:20:38.436Z,8.33
2022-10-13T02:23:11.990Z,8.07
2022-10-13T02:25:40.918Z,8.47
2022-10-13T02:28:09.830Z,8.37
2022-10-13T02:30:41.193Z,8.30
2022-10-13T02:33:11.263Z,7.83
2022-10-13T02:35:41.489Z,8.53
2022-10-13T02:38:09.689Z,8.67
2022-10-13T02:40:38.168Z,8.53
2022-10-13T02:43:06.477Z,8.23
2022-10-13T02:45:34.509Z,8.43
2022-10-13T02:48:02.944Z,7.50
2022-10-13T02:50:32.419Z,8.43
2022-10-13T02:53:00.449Z,8.47
2022-10-13T02:55:28.583Z,7.60
2022-10-13T02:57:56.602Z,8.60
2022-10-13T03:05:50.009Z,8.00
2022-10-13T03:08:19.457Z,8.13
2022-10-13T03:10:47.486Z,8.20
2022-10-13T03:13:15.525Z,7.80
2022-10-13T03:15:43.604Z,8.20
2022-10-13T03:18:11.716Z,8.10
2022-10-13T03:20:39.815Z,8.73
2022-10-13T03:23:07.983Z,8.87
2022-10-13T03:25:37.904Z,8.60
2022-10-13T03:28:06.081Z,8.33
2022-10-13T03:30:34.103Z,8.57
2022-10-13T03:33:02.106Z,8.97
2022-10-13T03:39:20.600Z,9.00
2022-10-13T03:41:50.024Z,8.50
2022-10-13T03:44:18.143Z,8.33
2022-10-13T03:46:46.154Z,8.23
2022-10-13T03:49:14.160Z,8.80
2022-10-13T03:51:42.270Z,8.40
2022-10-13T03:54:12.362Z,8.47
2022-10-13T03:56:40.835Z,8.90
2022-10-13T03:59:12.557Z,8.27
2022-10-13T04:01:41.374Z,8.70
2022-10-13T04:04:11.648Z,7.90
2022-10-13T04:06:40.196Z,8.37
2022-10-13T04:09:08.284Z,8.70
2022-10-13T04:11:36.327Z,8.73
2022-10-13T04:14:04.746Z,8.33
2022-10-13T04:16:34.118Z,8.43
2022-10-13T04:19:04.838Z,9.10
2022-10-13T04:21:34.503Z,8.97
2022-10-13T04:24:03.519Z,8.37
2022-10-13T04:26:33.825Z,8.63
2022-10-13T04:29:03.407Z,8.00
2022-10-13T04:31:33.741Z,8.00
2022-10-13T04:34:01.785Z,8.03
2022-10-13T04:36:29.853Z,8.80
2022-10-13T04:38:58.373Z,8.67
2022-10-13T04:41:26.406Z,8.43
2022-10-13T04:43:55.348Z,8.73
2022-10-13T04:46:25.602Z,8.67
2022-10-13T04:48:55.714Z,8.57
2022-10-13T04:51:25.819Z,8.33
2022-10-13T04:53:56.792Z,8.33
2022-10-13T04:56:25.489Z,7.90
2022-10-13T04:58:53.512Z,9.23
2022-10-13T05:01:24.309Z,8.87
2022-10-13T05:03:54.381Z,8.77
2022-10-13T05:06:25.215Z,9.33
2022-10-13T05:08:53.379Z,9.10
2022-10-13T05:11:21.586Z,8.17
2022-10-13T05:13:49.828Z,7.93
2022-10-13T05:16:20.104Z,8.40
2022-10-13T05:18:48.489Z,9.07
2022-10-13T05:21:19.618Z,8.33
2022-10-13T05:23:48.110Z,8.13
2022-10-13T05:26:17.795Z,8.57
2022-10-13T05:28:46.674Z,9.73
2022-10-13T05:31:17.405Z,8.53
2022-10-13T05:33:46.375Z,8.97
2022-10-13T05:36:17.785Z,9.00
2022-10-13T05:38:46.178Z,8.10
2022-10-13T05:41:15.373Z,8.53
2022-10-13T05:43:44.028Z,10.13
2022-10-13T05:46:12.165Z,8.70
2022-10-13T05:48:40.416Z,8.20
2022-10-13T05:51:13.697Z,9.43
2022-10-13T05:53:51.146Z,7.83
2022-10-13T05:56:27.068Z,8.70
2022-10-13T05:59:05.878Z,9.17
2022-10-13T06:01:37.585Z,8.67
2022-10-13T06:04:09.932Z,9.33
2022-10-13T06:06:38.165Z,8.17
2022-10-13T06:09:07.734Z,9.13
2022-10-13T06:11:35.840Z,8.03
2022-10-13T06:14:04.064Z,8.40
2022-10-13T06:16:32.152Z,8.43
2022-10-13T06:19:01.201Z,8.33
2022-10-13T06:21:29.283Z,7.83
2022-10-13T06:23:57.343Z,8.77
2022-10-13T06:26:29.533Z,8.20
2022-10-13T06:28:59.828Z,8.57
2022-10-13T06:31:28.216Z,8.93
2022-10-13T06:33:56.255Z,8.80
2022-10-13T06:36:24.289Z,8.73
2022-10-13T06:38:52.494Z,8.80
2022-10-13T06:41:20.573Z,8.17
2022-10-13T06:43:50.068Z,7.90
2022-10-13T06:46:18.395Z,8.67
2022-10-13T06:48:46.544Z,9.27
2022-10-13T06:51:14.562Z,8.50
2022-10-13T06:53:42.716Z,8.80
2022-10-13T06:56:11.240Z,7.97
2022-10-13T06:58:39.743Z,9.30
2022-10-13T07:01:09.372Z,8.60
2022-10-13T07:03:37.494Z,8.83
2022-10-13T07:06:08.003Z,7.83
2022-10-13T07:08:36.187Z,8.93
2022-10-13T07:11:14.488Z,10.20
2022-10-13T07:13:46.587Z,9.77
2022-10-13T07:16:17.230Z,8.87
2022-10-13T07:18:47.900Z,10.13
2022-10-13T07:21:16.225Z,9.37
2022-10-13T07:23:44.237Z,9.30
2022-10-13T07:26:14.690Z,9.63
2022-10-13T07:28:43.283Z,9.13
2022-10-13T07:31:13.769Z,9.73
2022-10-13T07:33:45.140Z,9.30
2022-10-13T07:36:13.648Z,8.90
2022-10-13T07:38:42.498Z,9.67
2022-10-13T07:41:11.969Z,9.30
2022-10-13T07:43:40.256Z,10.20
2022-10-13T07:46:08.989Z,9.83
2022-10-13T07:48:37.283Z,10.03
2022-10-13T07:51:08.539Z,9.37
2022-10-13T07:53:37.089Z,9.97
2022-10-13T07:56:07.800Z,10.50
2022-10-13T07:58:38.554Z,9.47
2022-10-13T08:01:07.186Z,9.97
2022-10-13T08:06:10.404Z,10.47
2022-10-13T08:08:40.151Z,9.97
2022-10-13T08:11:11.451Z,9.77
2022-10-13T08:13:41.780Z,9.47
2022-10-13T08:16:10.822Z,9.93
2022-10-13T08:18:38.833Z,9.63
2022-10-13T08:23:56.575Z,10.27
2022-10-13T08:26:26.979Z,9.93
2022-10-13T08:29:16.519Z,9.37
2022-10-13T08:31:43.905Z,9.83
2022-10-13T08:34:12.660Z,10.10
2022-10-13T08:36:41.343Z,8.87
2022-10-13T08:39:11.491Z,10.07
2022-10-13T08:41:43.695Z,10.53
2022-10-13T08:47:16.342Z,10.47
2022-10-13T08:49:46.294Z,9.27
2022-10-13T08:52:19.850Z,9.27
2022-10-13T08:54:49.735Z,9.77
2022-10-13T08:57:18.730Z,9.13
2022-10-13T08:59:47.668Z,8.50
2022-10-13T09:02:24.237Z,8.60
2022-10-13T09:04:54.404Z,9.53
2022-10-13T09:07:27.698Z,9.07
2022-10-13T09:09:57.206Z,8.70
2022-10-13T09:12:26.141Z,8.40
2022-10-13T09:15:03.382Z,8.50
2022-10-13T09:17:32.222Z,7.50
2022-10-13T09:20:03.040Z,7.40
2022-10-13T09:22:33.989Z,8.38
2022-10-13T09:25:22.593Z,8.07
2022-10-13T09:27:52.785Z,8.40
2022-10-13T09:30:28.156Z,8.63
2022-10-13T09:33:07.452Z,8.32
2022-10-13T09:35:35.853Z,8.68
2022-10-13T09:38:05.484Z,8.55
2022-10-13T09:40:35.658Z,8.80
2022-10-13T09:43:06.252Z,9.15
2022-10-13T09:45:34.321Z,9.10
2022-10-13T09:48:07.242Z,9.13
2022-10-13T09:50:37.124Z,10.37
2022-10-13T09:53:18.722Z,8.07
2022-10-13T09:55:49.609Z,8.52
2022-10-13T09:58:23.881Z,8.38
2022-10-13T10:00:53.755Z,8.80
2022-10-13T10:03:25.420Z,8.43
2022-10-13T10:05:56.229Z,7.93
2022-10-13T10:08:33.680Z,8.90
2022-10-13T10:11:14.374Z,9.55
2022-10-13T10:13:42.432Z,8.45
2022-10-13T10:16:19.136Z,8.05
2022-10-13T10:18:56.421Z,10.07
2022-10-13T10:21:32.700Z,9.60
2022-10-13T10:24:08.411Z,8.03
2022-10-13T10:26:49.747Z,9.63
2022-10-13T10:29:36.959Z,8.67
2022-10-13T10:32:14.670Z,9.33
2022-10-13T10:34:51.660Z,8.77
2022-10-13T10:37:26.390Z,10.03
2022-10-13T10:40:04.849Z,11.33
2022-10-13T10:42:57.999Z,10.40
2022-10-13T10:45:28.198Z,9.73
2022-10-13T10:48:00.361Z,8.80
2022-10-13T10:50:30.476Z,9.83
2022-10-13T10:53:03.996Z,8.93
2022-10-13T10:55:36.558Z,9.90
2022-10-13T11:14:02.567Z,10.10
2022-10-13T11:16:33.616Z,11.37
2022-10-13T11:19:08.042Z,11.50
2022-10-13T11:22:13.561Z,10.77
2022-10-13T11:24:53.496Z,11.60
2022-10-13T11:27:27.552Z,10.73
2022-10-13T11:29:59.081Z,10.70
2022-10-13T11:32:56.276Z,10.63
2022-10-13T11:35:29.721Z,11.50
2022-10-13T11:38:16.837Z,11.83
2022-10-13T11:41:06.963Z,12.50
2022-10-13T11:43:49.754Z,12.80
2022-10-13T11:46:28.135Z,12.23
2022-10-13T11:49:34.657Z,11.27
2022-10-13T11:52:23.729Z,11.43
2022-10-13T11:54:55.656Z,11.70
2022-10-13T11:57:25.468Z,10.77
2022-10-13T11:59:56.304Z,12.37
2022-10-13T12:02:27.706Z,11.67
2022-10-13T12:05:04.231Z,12.13
2022-10-13T12:07:37.215Z,12.23
2022-10-13T12:10:09.759Z,13.70
2022-10-13T12:12:37.992Z,11.57
2022-10-13T12:15:28.910Z,12.17
2022-10-13T12:17:58.479Z,10.73
2022-10-13T12:20:29.119Z,10.13
2022-10-13T12:22:58.579Z,10.73
2022-10-13T12:25:29.246Z,11.93
2022-10-13T12:28:00.057Z,11.00
2022-10-13T12:30:31.503Z,11.70
2022-10-13T12:33:01.699Z,10.57
2022-10-13T12:35:31.613Z,11.57
2022-10-13T12:38:03.699Z,10.53
2022-10-13T12:40:32.114Z,9.50
2022-10-13T12:43:00.711Z,9.63
2022-10-13T12:45:32.606Z,9.60
2022-10-13T12:48:02.098Z,9.37
2022-10-13T12:50:38.471Z,11.00
2022-10-13T12:53:24.510Z,10.70
2022-10-13T12:55:59.091Z,9.90
2022-10-13T12:58:30.382Z,9.77
2022-10-13T13:01:17.579Z,10.50
2022-10-13T13:03:47.060Z,10.40
2022-10-13T13:06:34.967Z,10.23
2022-10-13T13:09:31.277Z,10.10
2022-10-13T13:12:27.607Z,9.73
2022-10-13T13:14:56.677Z,10.43
2022-10-13T13:20:27.991Z,10.97
2022-10-13T13:22:56.106Z,11.80
2022-10-13T13:25:24.967Z,11.90
2022-10-13T13:27:53.582Z,11.17
2022-10-13T13:30:23.269Z,11.30
2022-10-13T13:32:51.807Z,11.30
2022-10-13T13:35:19.999Z,12.07
2022-10-13T13:37:51.096Z,11.33
2022-10-13T13:40:21.174Z,12.17
2022-10-13T13:42:49.303Z,10.23
2022-10-13T13:45:18.916Z,11.17
2022-10-13T13:47:47.319Z,11.57
2022-10-13T13:50:18.522Z,10.30
2022-10-13T13:52:46.690Z,12.23
2022-10-13T13:55:16.392Z,11.07
2022-10-13T13:57:44.978Z,10.97
2022-10-13T14:00:15.405Z,12.03
2022-10-13T14:02:44.554Z,10.73
2022-10-13T14:05:13.498Z,12.87
2022-10-13T14:07:41.951Z,11.37
2022-10-13T14:10:11.792Z,10.63
2022-10-13T14:12:41.317Z,12.63
2022-10-13T14:15:10.567Z,11.77
2022-10-13T14:17:38.615Z,11.03
2022-10-13T14:20:07.757Z,10.33
2022-10-13T14:22:38.176Z,11.37
2022-10-13T14:25:07.184Z,10.53
2022-10-13T14:27:35.542Z,10.97
2022-10-13T14:30:05.297Z,11.57
2022-10-13T14:32:33.611Z,11.90
2022-10-13T14:35:01.655Z,11.57
2022-10-13T14:37:33.314Z,13.23
2022-10-13T14:40:01.922Z,11.00
2022-10-13T14:42:29.972Z,12.60
2022-10-13T14:44:58.054Z,13.13
2022-10-13T14:47:27.936Z,11.40
2022-10-13T14:49:56.101Z,16.77
2022-10-13T14:52:24.198Z,16.90
2022-10-13T14:54:52.263Z,13.63
2022-10-13T14:57:20.665Z,12.13
2022-10-13T15:03:41.696Z,13.50
2022-10-13T15:06:14.031Z,13.33
2022-10-13T15:08:42.723Z,15.20
2022-10-13T15:11:14.344Z,14.30
2022-10-13T15:13:45.895Z,13.77
2022-10-13T15:16:18.369Z,14.80
2022-10-13T15:18:48.758Z,13.93
2022-10-13T15:21:18.268Z,13.07
2022-10-13T15:23:50.084Z,12.47
2022-10-13T15:26:20.721Z,13.03
2022-10-13T15:28:54.124Z,12.60
2022-10-13T15:31:23.794Z,11.60
2022-10-13T15:33:55.089Z,12.00
2022-10-13T15:36:24.349Z,11.83
2022-10-13T15:38:58.164Z,11.07
2022-10-13T15:41:26.771Z,12.10
2022-10-13T15:43:54.881Z,12.10
2022-10-13T15:46:24.260Z,12.17
2022-10-13T15:48:55.449Z,12.33
2022-10-13T15:51:26.982Z,12.10
2022-10-13T15:53:56.154Z,12.33
2022-10-13T15:56:24.532Z,13.30
2022-10-13T16:06:37.316Z,11.80
2022-10-13T16:09:05.651Z,13.07
2022-10-13T16:11:34.146Z,12.93
2022-10-13T16:14:02.204Z,12.13
2022-10-13T16:16:30.343Z,13.00
2022-10-13T16:18:58.544Z,11.70
2022-10-13T16:21:27.497Z,13.27
2022-10-13T16:23:57.129Z,12.23
2022-10-13T16:26:25.415Z,12.93
2022-10-13T16:28:56.866Z,12.77
2022-10-13T16:31:25.471Z,12.63
2022-10-13T16:33:53.748Z,13.07
2022-10-13T16:36:22.826Z,13.57
2022-10-13T16:38:50.913Z,13.07
2022-10-13T16:41:20.429Z,13.30
2022-10-13T16:43:49.188Z,13.97
2022-10-13T16:46:19.600Z,13.23
2022-10-13T16:48:49.725Z,12.97
2022-10-13T16:51:19.238Z,14.73
2022-10-13T16:53:49.836Z,13.70
2022-10-13T16:56:22.086Z,14.63
2022-10-13T16:58:53.752Z,14.53
2022-10-13T17:01:22.738Z,15.50
2022-10-13T17:03:52.228Z,15.50
2022-10-13T17:06:21.755Z,14.80
2022-10-13T17:08:50.045Z,15.17
2022-10-13T17:11:20.121Z,15.27
2022-10-13T17:13:48.961Z,16.10
2022-10-13T17:16:18.816Z,14.57
2022-10-13T17:18:47.086Z,16.03
2022-10-13T17:21:17.001Z,15.83
2022-10-13T17:23:48.823Z,16.93
2022-10-13T17:26:18.600Z,16.00
2022-10-13T17:28:46.917Z,17.10
2022-10-13T17:31:17.605Z,16.97
2022-10-13T17:33:48.037Z,18.33
2022-10-13T17:36:19.304Z,19.20
2022-10-13T17:38:48.523Z,17.20
2022-10-13T17:41:17.439Z,19.20
2022-10-13T17:43:45.598Z,19.37
2022-10-13T17:46:37.024Z,16.23
2022-10-13T17:49:06.427Z,16.90
2022-10-13T17:51:34.486Z,16.33
2022-10-13T17:54:02.834Z,17.37
2022-10-13T17:56:31.693Z,17.30
2022-10-13T17:59:00.527Z,17.73
2022-10-13T18:01:30.478Z,16.60
2022-10-13T18:04:00.181Z,18.13
2022-10-13T18:06:36.903Z,16.33
2022-10-13T18:09:07.427Z,19.80
2022-10-13T18:11:36.152Z,18.73
2022-10-13T18:14:04.429Z,18.63
2022-10-13T18:16:32.859Z,17.27
2022-10-13T18:19:01.084Z,17.97
2022-10-13T18:21:30.487Z,17.67
2022-10-13T18:24:02.285Z,18.20
2022-10-13T18:26:34.863Z,17.70
2022-10-13T18:29:03.734Z,18.00
2022-10-13T18:31:33.825Z,19.13
2022-10-13T18:34:03.747Z,18.37
2022-10-13T18:36:34.651Z,18.50
2022-10-13T18:39:05.115Z,19.53
2022-10-13T18:41:37.832Z,17.77
2022-10-13T18:44:07.538Z,18.13
2022-10-13T18:46:37.509Z,19.27
2022-10-13T18:49:05.843Z,18.97
2022-10-13T18:51:36.634Z,19.93
2022-10-13T18:54:05.840Z,19.17
2022-10-13T18:56:36.899Z,18.63
2022-10-13T18:59:06.663Z,19.53
2022-10-13T19:01:36.440Z,18.93
2022-10-13T19:04:06.398Z,20.37
2022-10-13T19:06:43.066Z,20.13
2022-10-13T19:09:13.859Z,20.17
2022-10-13T19:11:42.539Z,19.87
2022-10-13T19:14:13.577Z,20.67
2022-10-13T19:16:43.614Z,20.93
2022-10-13T19:19:12.307Z,20.00
2022-10-13T19:24:33.104Z,21.07
2022-10-13T19:27:01.188Z,20.93
2022-10-13T19:29:30.506Z,20.70
2022-10-13T19:31:58.534Z,21.33
2022-10-13T19:34:26.961Z,20.63
2022-10-13T19:44:37.825Z,20.90
2022-10-13T19:47:05.880Z,22.13
2022-10-13T19:49:33.916Z,22.40
2022-10-13T19:52:02.127Z,22.27
2022-10-13T19:54:33.846Z,22.30
2022-10-13T19:57:02.358Z,20.20
2022-10-13T19:59:30.409Z,21.77
2022-10-13T20:01:59.890Z,21.13
2022-10-13T20:04:28.007Z,19.90
2022-10-13T20:06:56.615Z,18.63
2022-10-13T20:09:24.953Z,18.77
2022-10-13T20:11:53.106Z,18.70
2022-10-13T20:14:21.951Z,16.17
2022-10-13T20:16:50.395Z,13.70
2022-10-13T20:19:20.256Z,14.03
2022-10-13T20:21:51.576Z,13.10
2022-10-13T20:24:20.601Z,13.77
2022-10-13T20:26:54.200Z,14.60
2022-10-13T20:29:22.290Z,14.53
2022-10-13T20:31:50.302Z,14.20
2022-10-13T20:34:19.746Z,15.93
2022-10-13T20:36:47.811Z,16.30
2022-10-13T20:39:15.864Z,15.87
2022-10-13T20:41:44.346Z,16.37
2022-10-13T20:44:18.435Z,16.87
2022-10-13T20:46:46.588Z,17.97
2022-10-13T20:49:14.829Z,18.73
2022-10-13T20:51:45.020Z,19.60
2022-10-13T20:54:14.694Z,18.20
2022-10-13T20:56:43.493Z,19.67
2022-10-13T20:59:14.640Z,19.00
2022-10-13T21:01:43.272Z,20.00
2022-10-13T21:04:12.160Z,20.73
2022-10-13T21:06:40.837Z,21.77
2022-10-13T21:09:10.914Z,20.83
2022-10-13T21:11:39.650Z,19.83
2022-10-13T21:14:09.608Z,19.80
2022-10-13T21:16:39.231Z,19.20
2022-10-13T21:19:07.753Z,19.47
2022-10-13T21:21:36.965Z,19.23
2022-10-13T21:24:07.106Z,19.40
2022-10-13T21:26:37.167Z,18.00
2022-10-13T21:29:05.543Z,18.70
2022-10-13T21:31:33.993Z,20.00
2022-10-13T21:34:02.037Z,19.80
2022-10-13T21:36:32.984Z,19.20
2022-10-13T21:39:02.668Z,20.40
2022-10-13T21:41:30.832Z,20.77
2022-10-13T21:44:00.421Z,18.87
2022-10-13T21:46:30.371Z,19.73
2022-10-13T21:49:00.776Z,21.40
2022-10-13T21:51:30.470Z,20.97
2022-10-13T21:54:00.274Z,19.67
2022-10-13T21:56:29.328Z,20.27
2022-10-13T21:58:57.680Z,20.47
2022-10-13T22:01:27.402Z,20.73
2022-10-13T22:03:56.796Z,19.80
2022-10-13T22:06:25.252Z,21.70
2022-10-13T22:08:55.542Z,20.20
2022-10-13T22:11:24.737Z,20.70
2022-10-13T22:13:52.945Z,20.67
2022-10-13T22:16:23.359Z,20.77
2022-10-13T22:18:55.198Z,20.57
2022-10-13T22:21:27.715Z,21.83
2022-10-13T22:23:58.388Z,21.43
2022-10-13T22:26:26.861Z,21.43
2022-10-13T22:28:55.023Z,21.67
2022-10-13T22:31:23.086Z,20.13
2022-10-13T22:33:53.660Z,20.37
2022-10-13T22:36:24.818Z,21.10
2022-10-13T22:38:55.312Z,20.87
2022-10-13T22:41:23.781Z,21.80
2022-10-13T22:43:53.401Z,20.07
2022-10-13T22:46:25.455Z,21.40
2022-10-13T22:48:53.687Z,21.63
2022-10-13T22:51:24.433Z,22.90
2022-10-13T22:53:53.025Z,21.90
2022-10-13T22:56:23.151Z,21.53
2022-10-13T22:58:51.841Z,20.43
2022-10-13T23:01:20.803Z,24.70
2022-10-13T23:07:40.844Z,22.10
2022-10-13T23:10:09.815Z,19.97
2022-10-13T23:12:37.917Z,18.63
2022-10-13T23:15:07.009Z,20.60
2022-10-13T23:17:35.097Z,20.07
2022-10-13T23:20:03.156Z,19.87
2022-10-13T23:22:31.238Z,20.67
2022-10-13T23:25:00.626Z,18.30
2022-10-13T23:27:29.326Z,19.17
2022-10-13T23:29:57.355Z,21.50
2022-10-13T23:32:25.431Z,21.63
2022-10-13T23:34:53.502Z,19.63
2022-10-13T23:37:21.811Z,20.07
2022-10-13T23:39:50.082Z,19.30
2022-10-13T23:42:19.482Z,20.70
2022-10-13T23:44:47.526Z,21.60
2022-10-13T23:47:15.576Z,22.13
2022-10-13T23:49:43.616Z,22.17
2022-10-13T23:52:11.641Z,22.60
2022-10-13T23:54:39.691Z,19.67
2022-10-13T23:57:07.697Z,20.87
2022-10-13T23:59:37.292Z,24.43
